KGTR

Golden Triangle Regional Airport

Columbus/W Point/Starkville, Mississippi, USA
METAR KGTR 231056Z 36003KT 10SM CLR 08/08 A3020 RMK AO2 SLP230 T00830078
Observed Flight Rules
Oct-23 @ 10:56 UTC (53 minutes ago) Visual Flight Rules
Wind Visibility Clouds
360° at 3 knots 10 miles
  • Clear skies
Temperatures Readings
Current 8°C / 46°F
Dewpoint 8°C / 46°F
Humidity 100%
Altimeter 30.2" Hg
Pressure 1023 hPa
Elevation 80
METAR KGTR 231056Z 36003KT 10SM CLR 08/08 A3020 RMK AO2 SLP230 T00830078
Observed Flight Rules
Oct-23 @ 10:56 UTC
(53 minutes ago)
VFR
Wind Visibility
360° at 3 knots 10 miles
Clouds
  • Clear skies
Temperature Dewpoint
8°C / 46°F 8°C / 46°F
Humidity Altimeter Pressure
100% 30.2" Hg 1023 hPa